NACIONALNO OTVORENO PRVENSTVO HRVATSKE U KARTINGU
1. NAGRADA VIMA-SAMOBOR '09
Novi Marof, 21.06.2009.

KLASA I
Poz. S.b. Vozač Klub Nac. Krug Vrijeme Zaostatak Bod.
1. 107 Adrian Sekulić Podravina Koprivnica HR 4 5:29,957 0:00,000 -
2. 110 Matija Habek KU Novi Marof HR 4 5:34,300 0:04,343 -
3. 103 Matija Kovačić KK 1 Zagreb HR 4 5:37,384 0:07,427 -
4. 105 Jan Pokos AK Speedy HR 4 5:48,715 0:18,758 -
5. 108 Dorian Vargović AMKK Cobra HR 4 5:49,545 0:19,588 -
6. 111 Tin Vorkapić KK Koprivnica HR 4 6:22,179 0:52,222 -
7. 109 Tin Grdić AK Zrinski HR 3 5:25,827 1 krug -
 
KLASA II - 1. UTRKA
Poz. S.b. Vozač Klub Nac. Krug Vrijeme Zaostatak Bod.
1. 206 Damian Sekulić KU Novi Marof HR 8 9:15,969 0:00,000 20
2. 217 Muhammad Pličanić AK Info Kart HR 8 9:30,596 0:14,627 15
3. 211 Corina Lukša AMKK Cobra HR 8 9:33,017 0:17,048 12
4. 212 Luka Moslavac AMKK Cobra HR 8 9:46,899 0:30,930 10
5. 218 Dorijan Čargonja Podravina Koprivnica HR 8 9:47,196 0:31,227 8
6. 219 Mihael Meretaj AMKK Cobra HR 6 9:35,501 2 kruga 6
7. 209 Petra Lesički Podravina Koprivnica HR 5 6:08,170 3 kruga 4
- 216 Fran Tisaj KK Koprivnica HR 7 isključen -
 
KLASA II - 2. UTRKA
Poz. S.b. Vozač Klub Nac. Krug Vrijeme Zaostatak Bod.
1. 206 Damian Sekulić KU Novi Marof HR 8 9:11,210 0:00,000 20
2. 216 Fran Tisaj KK Koprivnica HR 8 9:21,704 0:10,494 15
3. 217 Muhammad Pličanić AK Info Kart HR 8 9:21,991 0:10,781 12
4. 211 Corina Lukša AMKK Cobra HR 8 9:24,883 0:13,673 10
5. 209 Petra Lesički Podravina Koprivnica HR 8 9:28,540 0:17,330 8
6. 212 Luka Moslavac AMKK Cobra HR 8 9:50,342 0:39,132 6
7. 218 Dorijan Čargonja Podravina Koprivnica HR 8 9:50,800 0:39,590 4
8. 219 Mihael Meretaj AMKK Cobra HR 8 10:12,015 1:00,805 3
 
KLASA III - 1. UTRKA
Poz. S.b. Vozač Klub Nac. Krug Vrijeme Zaostatak Bod.
1. 301 Juraj Kovačić KK 1 Zagreb HR 5 5:10,676 0:00,000 10
2. 303 Moni Petrović AK Speedy HR 5 5:12,299 0:01,623 7,5
3. 305 William Mucak KK 1 Zagreb HR 5 5:15,759 0:05,083 6
4. 304 Dino Paleka KK Koprivnica HR 5 5:19,253 0:08,577 5
 
KLASA III - 2. UTRKA
Poz. S.b. Vozač Klub Nac. Krug Vrijeme Zaostatak Bod.
1. 301 Juraj Kovačić KK 1 Zagreb HR 5 5:12,503 0:00,000 10
2. 303 Moni Petrović AK Speedy HR 5 5:15,447 0:02,944 7,5
3. 305 William Mucak KK 1 Zagreb HR 5 5:19,366 0:06,863 6
4. 304 Dino Paleka KK Koprivnica HR 5 5:22,676 0:10,173 5
 
KLASA V - 1. UTRKA
Poz. S.b. Vozač Klub Nac. Krug Vrijeme Zaostatak Bod.
1. 501 Nikola Belohradski AKK Zanatlija HR 10 8:48,094 0:00,000 20
2. 509 Mislav Mikulec Podravina Koprivnica HR 10 8:52,085 0:03,991 15
3. 507 Martin Kodrić KK 1 Zagreb HR 10 9:01,810 0:13,716 12
4. 504 Tomislav Pavlić KK 1 Zagreb HR 10 9:11,303 0:23,209 10
5. 506 Dominik Đurđ KK Koprivnica HR 10 9:25,163 0:37,069 8
 
KLASA V - 2. UTRKA
Poz. S.b. Vozač Klub Nac. Krug Vrijeme Zaostatak Bod.
1. 501 Nikola Belohradski AKK Zanatlija HR 10 8:48,283 0:00,000 20
2. 507 Martin Kodrić KK 1 Zagreb HR 10 8:50,849 0:02,566 15
3. 509 Mislav Mikulec Podravina Koprivnica HR 10 8:52,328 0:04,045 12
4. 504 Tomislav Pavlić KK 1 Zagreb HR 10 9:01,343 0:13,060 10
5. 506 Dominik Đurđ KK Koprivnica HR 10 9:19,518 0:31,235 8
 
KLASA VII - 1. UTRKA
Poz. S.b. Vozač Klub Nac. Krug Vrijeme Zaostatak Bod.
1. 717 Miroslav Šajnić KK 1 Zagreb HR 13 11:38,645 0:00,000 20
2. 715 Ivan Kodrić KK 1 Zagreb HR 13 11:40,634 0:01,989 15
3. 709 Branimir Rojko KK Koprivnica HR 13 11:41,589 0:02,944 12
4. 719 Žarko Martinjak KK Koprivnica HR 13 11:46,576 0:07,931 10
5. 705 Renato Dujmović AMK Buzet HR 13 11:51,752 0:13,107 8
6. 718 Hrvoje Tisaj KK Koprivnica HR 13 12:22,888 0:44,243 6
7. 704 Zlatko Banić SAK Split HR 13 12:33,737 0:55,092 4
8. 716 Siniša Mišić AMKK Cobra HR 12 12:21,850 1 krug 3
9. 703 Miljenko Antolić KK 1 Zagreb HR 11 10:28,879 2 kruga 2
- 720 Zlatko Kovačić KK Koprivnica HR 4 odustao -
 
KLASA VII - 2. UTRKA
Poz. S.b. Vozač Klub Nac. Krug Vrijeme Zaostatak Bod.
1. 717 Miroslav Šajnić KK 1 Zagreb HR 13 11:42,371 0:00,000 20
2. 709 Branimir Rojko KK Koprivnica HR 13 11:43,773 0:01,402 15
3. 705 Renato Dujmović AMK Buzet HR 13 11:45,129 0:02,758 12
4. 719 Žarko Martinjak KK Koprivnica HR 13 12:00,876 0:18,505 10
5. 715 Ivan Kodrić KK 1 Zagreb HR 13 12:03,544 0:21,173 8
6. 718 Hrvoje Tisaj KK Koprivnica HR 13 12:05,248 0:22,877 6
7. 704 Zlatko Banić SAK Split HR 13 12:26,295 0:43,924 4
8. 716 Siniša Mišić AMKK Cobra HR 12 12:09,618 1 krug 3
9. 720 Zlatko Kovačić KK Koprivnica HR 8 8:29,777 5 krugova 2
- 703 Miljenko Antolić KK 1 Zagreb HR 0 nije startao -
 
KLASA VIII - 1. UTRKA
Poz. S.b. Vozač Klub Nac. Krug Vrijeme Zaostatak Bod.
1. 801 Kristijan Habulin KK 1 Zagreb HR 10 8:50,295 0:00,000 20
2. 805 Sven Gorup AMD Zanatlija HR 10 8:56,026 0:05,731 15
3. 813 Borna Vlašić Podravina Koprivnica HR 10 8:56,401 0:06,106 12
4. 811 Sanjin Trope AK Quickly HR 10 8:58,383 0:08,088 10
5. 802 Renco Majdak KK 1 Zagreb HR 10 9:01,849 0:11,554 8
6. 804 Karlo Golub KK 1 Zagreb HR 10 9:05,744 0:15,449 6
7. 807 Tomislav Srbljinović KK 1 Zagreb HR 10 9:12,017 0:21,722 4
8. 812 Igor Vargović AMKK Cobra HR 10 9:19,221 0:28,926 3
 
KLASA VIII - 2. UTRKA
Poz. S.b. Vozač Klub Nac. Krug Vrijeme Zaostatak Bod.
1. 801 Kristijan Habulin KK 1 Zagreb HR 10 8:50,223 0:00,000 20
2. 804 Karlo Golub KK 1 Zagreb HR 10 8:54,037 0:03,814 15
3. 805 Sven Gorup AMD Zanatlija HR 10 8:57,972 0:07,749 12
4. 807 Tomislav Srbljinović KK 1 Zagreb HR 10 8:58,171 0:07,948 10
5. 813 Borna Vlašić Podravina Koprivnica HR 10 9:01,404 0:11,181 8
6. 811 Sanjin Trope AK Quickly HR 10 9:03,042 0:12,819 6
7. 802 Renco Majdak KK 1 Zagreb HR 10 9:07,654 0:17,431 4
8. 812 Igor Vargović AMKK Cobra HR 10 9:21,469 0:31,246 3
 
KLASA IX - 1. UTRKA
Poz. S.b. Vozač Klub Nac. Krug Vrijeme Zaostatak Bod.
1. 901 Samir Smailagić AK Info Kart HR 10 10:06,823 0:00,000 20
2. 904 Alan Vorkapić KK Koprivnica HR 10 10:13,612 0:06,789 15
3. 915 Tomislav Lovrenc Podravina Koprivnica HR 10 10:14,305 0:07,482 12
4. 908 Ivijan Rajnović AMKK Cobra HR 10 10:14,697 0:07,874 10
5. 907 Tomislav Kelbel KK Koprivnica HR 10 10:41,356 0:34,533 8
 
KLASA IX - 2. UTRKA
Poz. S.b. Vozač Klub Nac. Krug Vrijeme Zaostatak Bod.
1. 901 Samir Smailagić AK Info Kart HR 10 10:03,468 0:00,000 20
2. 904 Alan Vorkapić KK Koprivnica HR 10 10:04,446 0:00,978 15
3. 908 Ivijan Rajnović AMKK Cobra HR 10 10:10,973 0:07,505 12
4. 915 Tomislav Lovrenc Podravina Koprivnica HR 10 10:11,396 0:07,928 10
5. 907 Tomislav Kelbel KK Koprivnica HR 10 10:16,479 0:13,011 8
 
PRVENSTVO HRVATSKE